NCAR-RAP Real-Time Weather Data

Output produced by METARs form (23 July 2018  17:09 UTC)
found at http://weather.rap.ucar.edu/surface/
 
KISN 231652Z AUTO 29015KT 10SM CLR 23/10 A3024 RMK AO2 SLP234 T02280100 $
KISN 231552Z AUTO 31011KT 10SM CLR 22/10 A3025 RMK AO2 SLP241 T02170100
 
KMOT 231654Z 29018G32KT 10SM CLR 24/08 A3016 RMK AO2 PK WND 29034/1625 SLP209 T02390083
KMOT 231554Z 28015G22KT 10SM CLR 22/09 A3017 RMK AO2 SLP212 T02220094
 
KMIB 231656Z AUTO 31021G29KT 10SM CLR 22/09 A3014 RMK AO2 PK WND 32033/04 SLP211 T02210089
KMIB 231556Z AUTO 31018KT 10SM CLR 22/09 A3015 RMK AO2 PK WND 31028/10 SLP214 T02160091
 
 
KN60 231652Z AUTO 30016G22KT 22/11 A3020 RMK AO1 PK WND 31028/1633 SLP224 T02170106
KN60 231552Z AUTO 31017G31KT 21/10 A3021 RMK AO1 PK WND 31031/1544 SLP228 T02060100